createdAt,value
2023-05-15T00:00:13.792Z,10.33
2023-05-15T00:03:05.155Z,10.32
2023-05-15T00:05:34.621Z,10.30
2023-05-15T00:08:04.327Z,10.28
2023-05-15T00:10:33.530Z,10.27
2023-05-15T00:13:02.823Z,10.26
2023-05-15T00:15:32.352Z,10.26
2023-05-15T00:18:01.779Z,10.25
2023-05-15T00:20:31.339Z,10.24
2023-05-15T00:23:00.793Z,10.24
2023-05-15T00:25:29.938Z,10.26
2023-05-15T00:27:59.544Z,10.29
2023-05-15T00:30:28.847Z,10.32
2023-05-15T00:32:57.999Z,10.34
2023-05-15T00:35:27.359Z,10.35
2023-05-15T00:37:56.751Z,10.36
2023-05-15T00:40:28.001Z,10.38
2023-05-15T00:42:58.350Z,10.40
2023-05-15T00:45:29.381Z,10.41
2023-05-15T00:48:01.037Z,10.42
2023-05-15T00:50:32.928Z,10.44
2023-05-15T00:53:04.031Z,10.46
2023-05-15T00:55:35.448Z,10.49
2023-05-15T00:58:05.600Z,10.51
2023-05-15T01:00:35.242Z,10.52
2023-05-15T01:03:06.682Z,10.50
2023-05-15T01:05:36.060Z,10.47
2023-05-15T01:08:27.350Z,10.45
2023-05-15T01:10:58.529Z,10.40
2023-05-15T01:13:28.235Z,10.34
2023-05-15T01:15:59.296Z,10.27
2023-05-15T01:18:32.770Z,10.19
2023-05-15T01:21:03.173Z,10.14
2023-05-15T01:23:42.727Z,10.08
2023-05-15T01:27:09.694Z,10.02
2023-05-15T01:30:08.396Z,9.95
2023-05-15T01:33:21.315Z,9.91
2023-05-15T01:36:07.640Z,9.86
2023-05-15T01:39:05.191Z,9.83
2023-05-15T01:41:59.149Z,9.79
2023-05-15T01:44:32.774Z,9.76
2023-05-15T01:47:14.620Z,9.76
2023-05-15T01:49:45.792Z,9.77
2023-05-15T01:52:29.325Z,9.80
2023-05-15T01:55:02.189Z,9.84
2023-05-15T01:57:32.437Z,9.87
2023-05-15T02:00:03.326Z,9.92
2023-05-15T02:02:45.184Z,9.96
2023-05-15T02:05:15.400Z,9.99
2023-05-15T02:07:46.113Z,10.01
2023-05-15T02:10:18.512Z,10.01
2023-05-15T02:12:51.470Z,10.00
2023-05-15T02:15:25.159Z,9.99
2023-05-15T02:17:55.435Z,9.94
2023-05-15T02:20:24.914Z,9.89
2023-05-15T02:22:54.181Z,9.83
2023-05-15T02:25:39.078Z,9.77
2023-05-15T02:28:17.383Z,9.72
2023-05-15T02:31:08.501Z,9.66
2023-05-15T02:33:58.111Z,9.61
2023-05-15T02:36:34.155Z,9.55
2023-05-15T02:39:03.850Z,9.51
2023-05-15T02:41:35.567Z,9.46
2023-05-15T02:44:06.361Z,9.43
2023-05-15T02:46:37.478Z,9.40
2023-05-15T02:49:07.311Z,9.35
2023-05-15T02:51:37.436Z,9.32
2023-05-15T02:54:08.979Z,9.29
2023-05-15T02:56:38.370Z,9.27
2023-05-15T02:59:07.868Z,9.26
2023-05-15T03:01:37.321Z,9.26
2023-05-15T03:04:06.728Z,9.27
2023-05-15T03:06:36.389Z,9.28
2023-05-15T03:09:05.690Z,9.27
2023-05-15T03:11:35.716Z,9.29
2023-05-15T03:14:05.128Z,9.31
2023-05-15T03:16:34.333Z,9.33
2023-05-15T03:19:04.136Z,9.33
2023-05-15T03:21:35.264Z,9.33
2023-05-15T03:24:04.775Z,9.30
2023-05-15T03:26:34.892Z,9.27
2023-05-15T03:29:04.307Z,9.24
2023-05-15T03:31:34.144Z,9.21
2023-05-15T03:34:03.487Z,9.17
2023-05-15T03:36:32.791Z,9.17
2023-05-15T03:39:02.222Z,9.14
2023-05-15T03:41:31.618Z,9.16
2023-05-15T03:44:02.760Z,9.18
2023-05-15T03:46:32.187Z,9.20
2023-05-15T03:49:01.369Z,9.24
2023-05-15T03:51:30.765Z,9.26
2023-05-15T03:54:00.274Z,9.32
2023-05-15T03:56:29.601Z,9.40
2023-05-15T03:58:59.689Z,9.47
2023-05-15T04:01:29.003Z,9.52
2023-05-15T04:03:58.365Z,9.61
2023-05-15T04:06:27.694Z,9.70
2023-05-15T04:08:57.204Z,9.83
2023-05-15T04:11:27.127Z,9.97
2023-05-15T04:13:56.322Z,10.11
2023-05-15T04:16:25.566Z,10.26
2023-05-15T04:18:54.795Z,10.43
2023-05-15T04:21:23.991Z,10.64
2023-05-15T04:23:53.517Z,10.86
2023-05-15T04:26:22.588Z,11.14
2023-05-15T04:29:02.893Z,11.48
2023-05-15T04:31:33.243Z,11.87
2023-05-15T04:34:04.337Z,12.27
2023-05-15T04:36:34.268Z,12.75
2023-05-15T04:39:04.070Z,13.15
2023-05-15T04:41:33.471Z,13.52
2023-05-15T04:44:02.726Z,13.93
2023-05-15T04:46:34.969Z,14.04
2023-05-15T04:49:04.446Z,13.97
2023-05-15T04:51:33.648Z,13.81
2023-05-15T04:54:03.458Z,13.63
2023-05-15T04:56:33.075Z,13.47
2023-05-15T04:59:02.567Z,13.33
2023-05-15T05:01:31.785Z,13.20
2023-05-15T05:04:01.384Z,13.09
2023-05-15T05:06:31.187Z,13.01
2023-05-15T05:09:00.512Z,12.94
2023-05-15T05:11:30.644Z,12.87
2023-05-15T05:14:00.358Z,12.80
2023-05-15T05:16:29.769Z,12.75
2023-05-15T05:18:59.089Z,12.78
2023-05-15T05:21:28.844Z,12.78
2023-05-15T05:23:58.241Z,12.94
2023-05-15T05:26:27.961Z,13.33
2023-05-15T05:28:57.582Z,13.86
2023-05-15T05:31:27.109Z,14.43
2023-05-15T05:33:56.372Z,14.98
2023-05-15T05:36:25.633Z,15.65
2023-05-15T05:38:54.972Z,16.37
2023-05-15T05:41:24.378Z,16.80
2023-05-15T05:43:53.573Z,17.23
2023-05-15T05:46:22.952Z,17.72
2023-05-15T05:48:52.177Z,18.05
2023-05-15T05:51:21.669Z,18.39
2023-05-15T05:53:50.877Z,18.87
2023-05-15T05:56:21.837Z,19.10
2023-05-15T05:58:54.184Z,19.21
2023-05-15T06:01:23.590Z,19.58
2023-05-15T06:03:52.978Z,19.90
2023-05-15T06:06:22.693Z,20.22
2023-05-15T06:08:54.186Z,20.54
2023-05-15T06:11:25.598Z,20.89
2023-05-15T06:13:55.111Z,21.13
2023-05-15T06:16:24.463Z,21.19
2023-05-15T06:18:53.824Z,21.36
2023-05-15T06:21:22.904Z,21.48
2023-05-15T06:23:52.204Z,21.76
2023-05-15T06:26:22.305Z,21.95
2023-05-15T06:28:51.739Z,22.00
2023-05-15T06:31:21.597Z,21.99
2023-05-15T06:33:51.051Z,21.98
2023-05-15T06:36:20.354Z,21.99
2023-05-15T06:38:49.757Z,22.13
2023-05-15T06:41:19.980Z,22.26
2023-05-15T06:43:49.174Z,22.17
2023-05-15T06:46:19.398Z,22.25
2023-05-15T06:48:48.916Z,22.23
2023-05-15T06:51:18.614Z,22.33
2023-05-15T06:53:47.817Z,22.36
2023-05-15T06:56:17.122Z,22.63
2023-05-15T06:58:46.721Z,22.88
2023-05-15T07:01:15.979Z,22.92
2023-05-15T07:03:45.945Z,23.06
2023-05-15T07:06:15.862Z,23.25
2023-05-15T07:08:45.153Z,23.50
2023-05-15T07:11:14.328Z,23.58
2023-05-15T07:13:44.105Z,23.56
2023-05-15T07:16:13.276Z,23.52
2023-05-15T07:18:42.789Z,23.38
2023-05-15T07:21:12.352Z,23.13
2023-05-15T07:23:41.628Z,22.84
2023-05-15T07:26:16.922Z,22.64
2023-05-15T07:28:49.861Z,22.56
2023-05-15T07:31:19.226Z,22.60
2023-05-15T07:33:48.613Z,22.64
2023-05-15T07:36:17.681Z,22.60
2023-05-15T07:38:47.009Z,22.62
2023-05-15T07:41:16.406Z,22.87
2023-05-15T07:43:45.513Z,23.00
2023-05-15T07:46:14.895Z,23.03
2023-05-15T07:48:44.326Z,23.17
2023-05-15T07:51:13.612Z,23.36
2023-05-15T07:53:43.254Z,23.59
2023-05-15T07:56:12.504Z,23.68
2023-05-15T07:58:42.535Z,23.64
2023-05-15T08:01:12.175Z,23.58
2023-05-15T08:03:41.568Z,23.53
2023-05-15T08:06:11.152Z,23.49
2023-05-15T08:08:40.764Z,23.60
2023-05-15T08:11:09.979Z,23.77
2023-05-15T08:13:39.389Z,23.69
2023-05-15T08:16:08.804Z,23.64
2023-05-15T08:18:38.839Z,23.64
2023-05-15T08:21:08.388Z,23.59
2023-05-15T08:23:37.791Z,23.43
2023-05-15T08:26:06.990Z,23.35
2023-05-15T08:28:36.394Z,23.43
2023-05-15T08:31:05.619Z,23.55
2023-05-15T08:33:34.728Z,23.71
2023-05-15T08:36:04.931Z,23.80
2023-05-15T08:38:34.378Z,24.06
2023-05-15T08:41:13.202Z,24.24
2023-05-15T08:43:43.054Z,24.33
2023-05-15T08:46:12.922Z,24.44
2023-05-15T08:48:43.670Z,24.68
2023-05-15T08:51:14.546Z,24.80
2023-05-15T08:53:44.557Z,24.75
2023-05-15T08:56:14.574Z,24.72
2023-05-15T08:58:44.601Z,24.75
2023-05-15T09:01:16.846Z,24.76
2023-05-15T09:03:47.321Z,24.81
2023-05-15T09:06:17.415Z,24.96
2023-05-15T09:08:47.536Z,25.05
2023-05-15T09:11:17.346Z,25.10
2023-05-15T09:13:46.439Z,25.12
2023-05-15T09:16:15.958Z,25.08
2023-05-15T09:18:46.138Z,25.13
2023-05-15T09:21:27.257Z,25.21
2023-05-15T09:24:17.931Z,25.10
2023-05-15T09:27:02.297Z,24.86
2023-05-15T09:29:33.217Z,24.85
2023-05-15T09:32:12.048Z,24.92
2023-05-15T09:34:44.335Z,24.94
2023-05-15T09:37:33.867Z,24.88
2023-05-15T09:40:11.399Z,24.80
2023-05-15T09:42:40.708Z,24.81
2023-05-15T09:45:18.710Z,24.69
2023-05-15T09:47:48.177Z,24.50
2023-05-15T09:50:23.551Z,24.45
2023-05-15T09:52:53.159Z,24.56
2023-05-15T09:55:23.357Z,24.71
2023-05-15T09:58:12.306Z,24.83
2023-05-15T10:00:47.996Z,24.96
2023-05-15T10:03:20.995Z,25.12
2023-05-15T10:05:50.948Z,25.27
2023-05-15T10:08:31.075Z,25.43
2023-05-15T10:11:03.624Z,25.68
2023-05-15T10:13:35.633Z,25.86
2023-05-15T10:16:06.017Z,26.04
2023-05-15T10:18:37.411Z,26.04
2023-05-15T10:21:09.723Z,26.08
2023-05-15T10:23:41.458Z,26.12
2023-05-15T10:26:29.387Z,26.36
2023-05-15T10:29:01.179Z,26.47
2023-05-15T10:31:31.375Z,26.48
2023-05-15T10:34:01.748Z,26.53
2023-05-15T10:36:33.110Z,26.56
2023-05-15T10:39:05.414Z,26.54
2023-05-15T10:41:38.253Z,26.57
2023-05-15T10:44:07.939Z,26.79
2023-05-15T10:46:37.756Z,26.79
2023-05-15T10:49:07.383Z,26.71
2023-05-15T10:51:39.625Z,26.73
2023-05-15T10:54:09.962Z,26.80
2023-05-15T10:56:40.226Z,26.85
2023-05-15T10:59:11.936Z,26.85
2023-05-15T11:01:41.906Z,26.76
2023-05-15T11:04:17.580Z,26.62
2023-05-15T11:06:50.042Z,26.48
2023-05-15T11:09:27.493Z,26.54
2023-05-15T11:12:03.437Z,26.86
2023-05-15T11:14:40.904Z,27.12
2023-05-15T11:17:17.690Z,27.14
2023-05-15T11:19:49.889Z,27.18
2023-05-15T11:22:30.858Z,27.34
2023-05-15T11:25:12.612Z,27.46
2023-05-15T11:27:46.771Z,27.40
2023-05-15T11:30:22.045Z,27.38
2023-05-15T11:33:03.157Z,27.35
2023-05-15T11:35:35.556Z,27.44
2023-05-15T11:38:13.046Z,27.58
2023-05-15T11:41:03.092Z,27.72
2023-05-15T11:43:36.732Z,27.84
2023-05-15T11:46:10.763Z,27.87
2023-05-15T11:48:48.019Z,27.67
2023-05-15T11:51:21.846Z,27.61
2023-05-15T11:53:57.041Z,27.58
2023-05-15T11:56:30.460Z,27.55
2023-05-15T11:59:04.232Z,27.60
2023-05-15T12:01:47.477Z,27.63
2023-05-15T12:04:18.913Z,27.60
2023-05-15T12:06:49.734Z,27.70
2023-05-15T12:09:19.670Z,27.78
2023-05-15T12:11:53.920Z,27.66
2023-05-15T12:14:34.063Z,27.53
2023-05-15T12:17:06.670Z,27.45
2023-05-15T12:19:38.627Z,27.39
2023-05-15T12:22:08.661Z,27.37
2023-05-15T12:24:39.947Z,27.52
2023-05-15T12:27:10.120Z,27.60
2023-05-15T12:29:40.862Z,27.56
2023-05-15T12:32:10.900Z,27.61
2023-05-15T12:34:41.099Z,27.74
2023-05-15T12:37:14.597Z,27.74
2023-05-15T12:39:54.062Z,27.64
2023-05-15T12:42:23.866Z,27.63
2023-05-15T12:44:55.761Z,27.61
2023-05-15T12:47:27.454Z,27.69
2023-05-15T12:50:00.217Z,27.74
2023-05-15T12:52:29.757Z,27.66
2023-05-15T12:55:01.453Z,27.54
2023-05-15T12:57:30.883Z,27.33
2023-05-15T13:00:00.935Z,27.07
2023-05-15T13:02:31.246Z,26.80
2023-05-15T13:05:06.067Z,26.66
2023-05-15T13:07:36.254Z,26.58
2023-05-15T13:10:10.328Z,26.58
2023-05-15T13:12:46.054Z,26.73
2023-05-15T13:15:38.829Z,26.91
2023-05-15T13:18:14.083Z,26.81
2023-05-15T13:20:53.722Z,26.61
2023-05-15T13:23:25.554Z,26.50
2023-05-15T13:25:54.932Z,26.48
2023-05-15T13:28:24.672Z,26.47
2023-05-15T13:30:54.076Z,26.44
2023-05-15T13:33:23.274Z,26.51
2023-05-15T13:35:53.186Z,26.58
2023-05-15T13:38:22.493Z,26.54
2023-05-15T13:40:51.827Z,26.42
2023-05-15T13:43:21.196Z,26.29
2023-05-15T13:45:50.493Z,26.16
2023-05-15T13:48:19.597Z,25.97
2023-05-15T13:50:48.890Z,25.74
2023-05-15T13:53:18.913Z,25.62
2023-05-15T13:55:48.332Z,25.53
2023-05-15T13:58:17.617Z,25.45
2023-05-15T14:00:49.350Z,25.40
2023-05-15T14:03:18.855Z,25.32
2023-05-15T14:05:48.395Z,25.23
2023-05-15T14:08:17.582Z,25.10
2023-05-15T14:10:46.899Z,24.97
2023-05-15T14:13:16.089Z,24.82
2023-05-15T14:15:45.180Z,24.70
2023-05-15T14:18:14.396Z,24.56
2023-05-15T14:20:43.675Z,24.44
2023-05-15T14:23:12.772Z,24.38
2023-05-15T14:25:42.603Z,24.34
2023-05-15T14:28:12.932Z,24.34
2023-05-15T14:30:41.993Z,24.32
2023-05-15T14:33:11.351Z,24.29
2023-05-15T14:35:40.712Z,24.29
2023-05-15T14:38:09.914Z,24.28
2023-05-15T14:40:39.322Z,24.27
2023-05-15T14:43:08.937Z,24.28
2023-05-15T14:45:38.221Z,24.26
2023-05-15T14:48:07.609Z,24.23
2023-05-15T14:50:36.928Z,24.22
2023-05-15T14:53:06.218Z,24.21
2023-05-15T14:55:35.423Z,24.20
2023-05-15T14:58:04.724Z,24.16
2023-05-15T15:00:33.914Z,24.07
2023-05-15T15:03:03.374Z,24.00
2023-05-15T15:05:32.828Z,23.95
2023-05-15T15:08:09.621Z,23.90
2023-05-15T15:10:40.883Z,23.85
2023-05-15T15:13:11.898Z,23.78
2023-05-15T15:15:41.198Z,23.71
2023-05-15T15:18:10.835Z,23.65
2023-05-15T15:20:42.968Z,23.65
2023-05-15T15:23:12.176Z,23.63
2023-05-15T15:25:41.394Z,23.58
2023-05-15T15:28:10.769Z,23.48
2023-05-15T15:30:40.138Z,23.37
2023-05-15T15:33:09.555Z,23.27
2023-05-15T15:35:38.872Z,23.15
2023-05-15T15:38:10.329Z,23.06
2023-05-15T15:40:41.048Z,22.94
2023-05-15T15:43:10.495Z,22.86
2023-05-15T15:45:40.017Z,22.75
2023-05-15T15:48:09.464Z,22.64
2023-05-15T15:50:38.881Z,22.52
2023-05-15T15:53:08.056Z,22.42
2023-05-15T15:55:37.254Z,22.32
2023-05-15T15:58:06.510Z,22.19
2023-05-15T16:00:37.560Z,22.09
2023-05-15T16:03:07.665Z,21.98
2023-05-15T16:05:37.452Z,21.86
2023-05-15T16:08:06.766Z,21.77
2023-05-15T16:10:35.953Z,21.67
2023-05-15T16:13:05.357Z,21.53
2023-05-15T16:15:34.763Z,21.40
2023-05-15T16:18:04.198Z,21.32
2023-05-15T16:20:35.269Z,21.24
2023-05-15T16:23:04.934Z,21.16
2023-05-15T16:25:34.161Z,21.10
2023-05-15T16:28:03.416Z,21.02
2023-05-15T16:30:47.272Z,20.95
2023-05-15T16:33:18.915Z,20.88
2023-05-15T16:35:48.309Z,20.83
2023-05-15T16:38:18.434Z,20.78
2023-05-15T16:40:47.836Z,20.73
2023-05-15T16:43:17.445Z,20.67
2023-05-15T16:45:46.628Z,20.59
2023-05-15T16:48:15.903Z,20.52
2023-05-15T16:50:45.241Z,20.43
2023-05-15T16:53:15.402Z,20.34
2023-05-15T16:55:45.795Z,20.25
2023-05-15T16:58:15.812Z,20.13
2023-05-15T17:00:45.010Z,20.02
2023-05-15T17:03:14.551Z,19.90
2023-05-15T17:05:43.914Z,19.77
2023-05-15T17:08:13.218Z,19.65
2023-05-15T17:10:42.540Z,19.55
2023-05-15T17:13:11.818Z,19.45
2023-05-15T17:15:40.841Z,19.37
2023-05-15T17:18:10.244Z,19.30
2023-05-15T17:20:39.505Z,19.23
2023-05-15T17:23:08.737Z,19.17
2023-05-15T17:25:38.010Z,19.11
2023-05-15T17:28:07.319Z,19.03
2023-05-15T17:30:36.539Z,18.97
2023-05-15T17:33:05.770Z,18.90
2023-05-15T17:35:34.924Z,18.84
2023-05-15T17:38:04.305Z,18.78
2023-05-15T17:40:34.126Z,18.73
2023-05-15T17:43:03.948Z,18.68
2023-05-15T17:45:33.232Z,18.63
2023-05-15T17:48:03.674Z,18.58
2023-05-15T17:50:35.355Z,18.51
2023-05-15T17:53:05.930Z,18.44
2023-05-15T17:55:35.533Z,18.38
2023-05-15T17:58:04.810Z,18.33
2023-05-15T18:00:34.179Z,18.28
2023-05-15T18:03:03.963Z,18.23
2023-05-15T18:05:33.281Z,18.19
2023-05-15T18:08:03.809Z,18.14
2023-05-15T18:10:32.921Z,18.11
2023-05-15T18:13:02.202Z,18.08
2023-05-15T18:15:32.626Z,18.05
2023-05-15T18:18:02.764Z,18.00
2023-05-15T18:20:32.066Z,17.92
2023-05-15T18:23:01.273Z,17.88
2023-05-15T18:25:31.570Z,17.84
2023-05-15T18:28:00.970Z,17.80
2023-05-15T18:30:30.895Z,17.75
2023-05-15T18:33:00.339Z,17.71
2023-05-15T18:35:29.830Z,17.70
2023-05-15T18:37:59.199Z,17.66
2023-05-15T18:40:28.607Z,17.61
2023-05-15T18:42:58.436Z,17.56
2023-05-15T18:45:27.734Z,17.51
2023-05-15T18:47:57.415Z,17.46
2023-05-15T18:50:26.929Z,17.41
2023-05-15T18:52:56.240Z,17.35
2023-05-15T18:55:27.689Z,17.29
2023-05-15T18:57:57.195Z,17.23
2023-05-15T19:00:37.288Z,17.16
2023-05-15T19:03:09.025Z,17.09
2023-05-15T19:05:38.427Z,17.04
2023-05-15T19:08:07.816Z,16.98
2023-05-15T19:10:37.017Z,16.93
2023-05-15T19:13:06.416Z,16.87
2023-05-15T19:15:35.912Z,16.80
2023-05-15T19:18:05.558Z,16.75
2023-05-15T19:20:34.832Z,16.69
2023-05-15T19:23:03.919Z,16.63
2023-05-15T19:25:33.118Z,16.59
2023-05-15T19:28:02.544Z,16.54
2023-05-15T19:30:32.135Z,16.50
2023-05-15T19:33:01.444Z,16.47
2023-05-15T19:35:30.833Z,16.42
2023-05-15T19:38:00.155Z,16.38
2023-05-15T19:40:29.587Z,16.32
2023-05-15T19:42:58.846Z,16.27
2023-05-15T19:45:29.646Z,16.23
2023-05-15T19:48:00.574Z,16.19
2023-05-15T19:50:31.413Z,16.13
2023-05-15T19:53:01.951Z,16.07
2023-05-15T19:55:31.368Z,16.03
2023-05-15T19:58:01.090Z,15.96
2023-05-15T20:00:30.394Z,15.92
2023-05-15T20:03:01.192Z,15.87
2023-05-15T20:05:30.523Z,15.83
2023-05-15T20:07:59.928Z,15.78
2023-05-15T20:10:29.441Z,15.74
2023-05-15T20:12:59.256Z,15.71
2023-05-15T20:15:29.512Z,15.67
2023-05-15T20:17:59.430Z,15.63
2023-05-15T20:20:29.109Z,15.59
2023-05-15T20:22:58.705Z,15.54
2023-05-15T20:25:29.968Z,15.49
2023-05-15T20:28:01.014Z,15.45
2023-05-15T20:30:30.283Z,15.40
2023-05-15T20:32:59.574Z,15.36
2023-05-15T20:35:30.044Z,15.31
2023-05-15T20:37:59.636Z,15.26
2023-05-15T20:40:29.357Z,15.21
2023-05-15T20:42:59.328Z,15.17
2023-05-15T20:45:29.170Z,15.14
2023-05-15T20:47:58.723Z,15.11
2023-05-15T20:50:28.530Z,15.07
2023-05-15T20:52:58.400Z,15.04
2023-05-15T20:55:27.914Z,15.00
2023-05-15T20:57:57.314Z,14.98
2023-05-15T21:00:27.193Z,14.96
2023-05-15T21:02:56.949Z,14.94
2023-05-15T21:05:26.761Z,14.92
2023-05-15T21:07:56.154Z,14.88
2023-05-15T21:10:25.732Z,14.84
2023-05-15T21:12:56.511Z,14.81
2023-05-15T21:15:27.230Z,14.78
2023-05-15T21:17:56.918Z,14.74
2023-05-15T21:20:27.425Z,14.72
2023-05-15T21:22:57.284Z,14.69
2023-05-15T21:25:27.117Z,14.66
2023-05-15T21:27:56.619Z,14.63
2023-05-15T21:30:26.154Z,14.61
2023-05-15T21:32:55.741Z,14.58
2023-05-15T21:35:25.731Z,14.56
2023-05-15T21:37:55.564Z,14.54
2023-05-15T21:40:25.014Z,14.50
2023-05-15T21:42:54.460Z,14.47
2023-05-15T21:45:23.662Z,14.44
2023-05-15T21:47:53.412Z,14.42
2023-05-15T21:50:22.872Z,14.39
2023-05-15T21:52:52.300Z,14.36
2023-05-15T21:55:21.606Z,14.34
2023-05-15T21:57:51.075Z,14.31
2023-05-15T22:00:20.995Z,14.29
2023-05-15T22:02:50.215Z,14.26
2023-05-15T22:05:19.488Z,14.23
2023-05-15T22:07:48.796Z,14.22
2023-05-15T22:10:17.987Z,14.20
2023-05-15T22:12:47.326Z,14.18
2023-05-15T22:15:25.808Z,14.16
2023-05-15T22:17:55.184Z,14.11
2023-05-15T22:20:25.130Z,14.08
2023-05-15T22:22:54.733Z,14.04
2023-05-15T22:25:24.344Z,14.00
2023-05-15T22:27:53.548Z,13.97
2023-05-15T22:30:22.661Z,13.94
2023-05-15T22:32:52.082Z,13.91
2023-05-15T22:35:21.540Z,13.87
2023-05-15T22:37:51.050Z,13.85
2023-05-15T22:40:20.289Z,13.83
2023-05-15T22:42:50.475Z,13.82
2023-05-15T22:45:19.898Z,13.80
2023-05-15T22:47:49.758Z,13.78
2023-05-15T22:50:19.226Z,13.77
2023-05-15T22:52:48.441Z,13.76
2023-05-15T22:55:17.587Z,13.76
2023-05-15T22:57:46.972Z,13.77
2023-05-15T23:00:17.106Z,13.78
2023-05-15T23:02:46.345Z,13.77
2023-05-15T23:05:15.715Z,13.77
2023-05-15T23:08:12.866Z,13.77
2023-05-15T23:11:00.917Z,13.76
2023-05-15T23:13:30.203Z,13.73
2023-05-15T23:15:59.528Z,13.70
2023-05-15T23:18:28.867Z,13.67
2023-05-15T23:20:58.314Z,13.66
2023-05-15T23:23:28.387Z,13.64
2023-05-15T23:25:57.562Z,13.64
2023-05-15T23:28:27.154Z,13.63
2023-05-15T23:30:56.870Z,13.60
2023-05-15T23:33:26.252Z,13.59
2023-05-15T23:35:55.563Z,13.59
2023-05-15T23:38:24.881Z,13.59
2023-05-15T23:40:54.159Z,13.60
2023-05-15T23:43:23.764Z,13.60
2023-05-15T23:45:53.064Z,13.60
2023-05-15T23:48:22.163Z,13.60
2023-05-15T23:50:52.561Z,13.59
2023-05-15T23:53:22.124Z,13.58
2023-05-15T23:55:51.398Z,13.57
2023-05-15T23:58:21.614Z,13.56
